createdAt,value
2019-02-27T00:01:17.076Z,26.53
2019-02-27T00:03:46.267Z,24.10
2019-02-27T00:06:16.047Z,24.63
2019-02-27T00:08:45.710Z,25.37
2019-02-27T00:11:15.187Z,25.00
2019-02-27T00:13:44.428Z,23.80
2019-02-27T00:16:13.892Z,23.27
2019-02-27T00:18:43.181Z,24.37
2019-02-27T00:21:12.531Z,30.20
2019-02-27T00:23:42.145Z,27.40
2019-02-27T00:26:11.546Z,25.10
2019-02-27T00:28:40.883Z,24.40
2019-02-27T00:31:11.559Z,25.30
2019-02-27T00:33:41.408Z,23.43
2019-02-27T00:36:12.315Z,24.30
2019-02-27T00:38:41.769Z,25.77
2019-02-27T00:41:12.804Z,26.90
2019-02-27T00:43:42.377Z,29.23
2019-02-27T00:46:13.319Z,28.97
2019-02-27T00:48:43.011Z,29.33
2019-02-27T00:51:12.873Z,27.47
2019-02-27T00:53:42.578Z,27.33
2019-02-27T00:56:12.811Z,26.80
2019-02-27T00:58:42.192Z,24.63
2019-02-27T01:01:12.701Z,20.47
2019-02-27T01:03:42.719Z,19.80
2019-02-27T01:06:14.794Z,19.17
2019-02-27T01:08:43.784Z,17.77
2019-02-27T01:11:13.121Z,19.30
2019-02-27T01:13:42.613Z,21.13
2019-02-27T01:16:12.040Z,20.83
2019-02-27T01:18:41.392Z,21.90
2019-02-27T01:21:10.777Z,23.17
2019-02-27T01:23:43.884Z,22.80
2019-02-27T01:26:11.079Z,20.90
2019-02-27T01:28:44.732Z,21.07
2019-02-27T01:31:11.387Z,30.13
2019-02-27T01:33:40.722Z,27.73
2019-02-27T01:36:10.048Z,23.47
2019-02-27T01:38:39.394Z,22.63
2019-02-27T01:41:08.681Z,23.53
2019-02-27T01:43:40.077Z,24.93
2019-02-27T01:46:09.088Z,26.60
2019-02-27T01:48:42.574Z,36.43
2019-02-27T01:51:09.654Z,35.00
2019-02-27T01:53:40.469Z,36.73
2019-02-27T01:56:10.356Z,34.53
2019-02-27T01:58:43.472Z,33.00
2019-02-27T02:01:10.733Z,31.00
2019-02-27T02:03:40.281Z,31.07
2019-02-27T02:06:09.610Z,28.67
2019-02-27T02:08:38.878Z,28.27
2019-02-27T02:11:08.643Z,28.07
2019-02-27T02:13:57.344Z,29.10
2019-02-27T02:16:51.736Z,28.07
2019-02-27T02:20:13.915Z,29.63
2019-02-27T02:23:30.509Z,27.80
2019-02-27T02:26:13.324Z,25.70
2019-02-27T02:29:07.737Z,24.73
2019-02-27T02:31:47.519Z,21.23
2019-02-27T02:34:44.535Z,20.70
2019-02-27T02:37:30.049Z,21.03
2019-02-27T02:40:30.797Z,22.87
2019-02-27T02:43:29.561Z,22.53
2019-02-27T02:46:45.529Z,20.67
2019-02-27T02:50:00.986Z,21.50
2019-02-27T02:53:17.631Z,18.80
2019-02-27T02:56:39.994Z,19.37
2019-02-27T02:59:50.686Z,17.87
2019-02-27T03:02:52.535Z,17.97
2019-02-27T03:05:49.090Z,16.70
2019-02-27T03:08:56.306Z,18.73
2019-02-27T03:12:15.559Z,21.37
2019-02-27T03:15:33.591Z,22.37
2019-02-27T03:18:40.508Z,20.53
2019-02-27T03:21:52.230Z,21.47
2019-02-27T03:24:53.749Z,22.67
2019-02-27T03:28:05.064Z,21.77
2019-02-27T03:31:00.614Z,18.27
2019-02-27T03:34:09.093Z,17.63
2019-02-27T03:37:13.104Z,15.13
2019-02-27T03:40:25.133Z,19.60
2019-02-27T03:43:20.119Z,19.77
2019-02-27T03:46:41.751Z,19.13
2019-02-27T03:49:55.739Z,21.67
2019-02-27T03:53:12.083Z,21.93
2019-02-27T03:56:28.285Z,24.60
2019-02-27T03:59:24.165Z,23.10
2019-02-27T04:02:29.288Z,21.60
2019-02-27T04:05:24.658Z,23.63
2019-02-27T04:08:25.723Z,20.97
2019-02-27T04:10:54.992Z,21.27
2019-02-27T04:13:27.730Z,20.27
2019-02-27T04:15:55.662Z,22.90
2019-02-27T04:18:27.534Z,20.57
2019-02-27T04:20:54.248Z,20.27
2019-02-27T04:23:23.759Z,19.97
2019-02-27T04:25:53.081Z,19.80
2019-02-27T04:28:22.414Z,19.80
2019-02-27T04:30:52.096Z,21.33
2019-02-27T04:33:23.437Z,19.70
2019-02-27T04:35:52.485Z,18.10
2019-02-27T04:38:21.849Z,19.07
2019-02-27T04:40:51.160Z,17.70
2019-02-27T04:43:20.484Z,18.87
2019-02-27T04:45:49.862Z,20.43
2019-02-27T04:48:19.270Z,19.37
2019-02-27T04:50:48.585Z,20.97
2019-02-27T04:53:17.863Z,21.27
2019-02-27T04:55:47.983Z,24.27
2019-02-27T04:58:18.260Z,21.97
2019-02-27T05:00:47.798Z,23.77
2019-02-27T05:03:17.253Z,22.87
2019-02-27T05:05:46.548Z,22.90
2019-02-27T05:08:15.918Z,25.83
2019-02-27T05:10:45.275Z,25.53
2019-02-27T05:13:14.599Z,27.00
2019-02-27T05:15:44.123Z,25.70
2019-02-27T05:18:13.524Z,25.83
2019-02-27T05:20:44.888Z,26.20
2019-02-27T05:23:14.131Z,32.03
2019-02-27T05:25:43.509Z,26.67
2019-02-27T05:28:12.857Z,28.47
2019-02-27T05:30:44.753Z,28.60
2019-02-27T05:33:13.224Z,46.07
2019-02-27T05:35:42.550Z,40.77
2019-02-27T05:38:12.177Z,32.87
2019-02-27T05:40:41.475Z,30.13
2019-02-27T05:43:13.168Z,27.03
2019-02-27T05:45:41.946Z,27.23
2019-02-27T05:48:11.283Z,24.33
2019-02-27T05:50:40.544Z,24.83
2019-02-27T05:53:10.651Z,29.43
2019-02-27T05:55:40.038Z,30.77
2019-02-27T05:58:09.409Z,27.43
2019-02-27T06:00:38.751Z,30.13
2019-02-27T06:03:08.086Z,34.40
2019-02-27T06:05:37.422Z,35.23
2019-02-27T06:08:06.964Z,45.37
2019-02-27T06:10:36.337Z,43.83
2019-02-27T06:13:05.683Z,47.70
2019-02-27T06:15:35.074Z,43.90
2019-02-27T06:18:04.411Z,45.93
2019-02-27T06:20:33.779Z,40.97
2019-02-27T06:23:04.497Z,35.63
2019-02-27T06:25:34.324Z,32.37
2019-02-27T06:28:03.668Z,26.23
2019-02-27T06:30:33.154Z,25.87
2019-02-27T06:33:02.469Z,23.17
2019-02-27T06:35:34.241Z,20.53
2019-02-27T06:38:03.003Z,20.70
2019-02-27T06:40:32.341Z,18.03
2019-02-27T06:43:01.713Z,17.60
2019-02-27T06:45:31.301Z,16.87
2019-02-27T06:48:00.603Z,16.50
2019-02-27T06:50:29.992Z,16.13
2019-02-27T06:52:59.485Z,16.90
2019-02-27T06:55:28.884Z,19.53
2019-02-27T06:57:58.242Z,22.20
2019-02-27T07:00:27.639Z,20.63
2019-02-27T07:02:57.011Z,20.17
2019-02-27T07:05:26.365Z,21.53
2019-02-27T07:07:55.710Z,21.77
2019-02-27T07:10:25.029Z,20.50
2019-02-27T07:12:55.337Z,20.47
2019-02-27T07:15:24.763Z,22.70
2019-02-27T07:17:54.109Z,22.57
2019-02-27T07:20:24.527Z,23.10
2019-02-27T07:22:54.731Z,23.67
2019-02-27T07:25:24.142Z,24.97
2019-02-27T07:27:53.456Z,25.60
2019-02-27T07:30:23.897Z,26.60
2019-02-27T07:32:53.374Z,26.77
2019-02-27T07:35:25.496Z,26.87
2019-02-27T07:37:53.994Z,27.07
2019-02-27T07:40:23.383Z,25.97
2019-02-27T07:42:52.664Z,26.40
2019-02-27T07:45:22.808Z,27.37
2019-02-27T07:47:52.376Z,26.23
2019-02-27T07:50:21.790Z,24.97
2019-02-27T07:52:52.248Z,23.87
2019-02-27T07:55:23.287Z,25.33
2019-02-27T07:57:53.016Z,25.93
2019-02-27T08:00:22.342Z,25.47
2019-02-27T08:02:51.651Z,26.33
2019-02-27T08:05:21.153Z,25.70
2019-02-27T08:07:50.483Z,26.40
2019-02-27T08:10:20.153Z,27.33
2019-02-27T08:12:49.589Z,26.23
2019-02-27T08:15:19.341Z,27.60
2019-02-27T08:17:48.820Z,27.87
2019-02-27T08:20:21.087Z,26.43
2019-02-27T08:22:49.813Z,25.90
2019-02-27T08:25:19.278Z,28.13
2019-02-27T08:27:48.720Z,27.63
2019-02-27T08:30:20.048Z,27.67
2019-02-27T08:32:49.335Z,27.03
2019-02-27T08:35:18.655Z,28.23
2019-02-27T08:37:48.179Z,27.50
2019-02-27T08:40:17.503Z,28.43
2019-02-27T08:42:46.831Z,28.07
2019-02-27T08:45:19.591Z,28.47
2019-02-27T08:47:47.332Z,27.83
2019-02-27T08:50:16.949Z,27.47
2019-02-27T08:52:50.181Z,28.20
2019-02-27T08:55:20.053Z,28.10
2019-02-27T08:57:49.855Z,27.30
2019-02-27T09:00:23.148Z,27.27
2019-02-27T09:02:52.205Z,26.10
2019-02-27T09:05:21.820Z,27.20
2019-02-27T09:07:51.122Z,28.30
2019-02-27T09:10:23.361Z,27.70
2019-02-27T09:12:51.892Z,26.37
2019-02-27T09:15:21.310Z,27.10
2019-02-27T09:17:50.646Z,27.30
2019-02-27T09:20:20.603Z,27.30
2019-02-27T09:22:50.272Z,29.07
2019-02-27T09:25:23.746Z,27.67
2019-02-27T09:27:50.804Z,25.33
2019-02-27T09:30:20.149Z,27.80
2019-02-27T09:32:49.540Z,25.27
2019-02-27T09:35:18.963Z,26.43
2019-02-27T09:37:51.139Z,26.23
2019-02-27T09:40:19.732Z,26.10
2019-02-27T09:42:50.295Z,26.80
2019-02-27T09:45:26.534Z,24.73
2019-02-27T09:47:59.333Z,27.30
2019-02-27T09:50:34.716Z,25.70
2019-02-27T09:53:04.442Z,24.23
2019-02-27T09:55:33.976Z,25.30
2019-02-27T09:58:03.450Z,23.87
2019-02-27T10:00:43.825Z,24.67
2019-02-27T10:03:13.598Z,25.27
2019-02-27T10:05:42.933Z,25.10
2019-02-27T10:08:12.989Z,24.73
2019-02-27T10:10:45.173Z,25.03
2019-02-27T10:13:13.380Z,25.10
2019-02-27T10:15:42.909Z,25.07
2019-02-27T10:18:12.277Z,26.27
2019-02-27T10:20:41.694Z,24.70
2019-02-27T10:23:11.101Z,24.73
2019-02-27T10:25:43.276Z,25.50
2019-02-27T10:28:11.515Z,25.80
2019-02-27T10:30:40.948Z,25.53
2019-02-27T10:33:11.156Z,27.00
2019-02-27T10:35:41.261Z,26.20
2019-02-27T10:38:10.628Z,25.57
2019-02-27T10:40:39.997Z,26.73
2019-02-27T10:43:09.333Z,26.07
2019-02-27T10:45:38.848Z,24.67
2019-02-27T10:48:08.113Z,24.83
2019-02-27T10:50:37.506Z,24.03
2019-02-27T10:53:07.066Z,25.67
2019-02-27T10:55:36.385Z,22.87
2019-02-27T10:58:07.681Z,25.90
2019-02-27T11:00:36.977Z,24.93
2019-02-27T11:03:06.302Z,25.77
2019-02-27T11:05:35.648Z,24.23
2019-02-27T11:08:05.345Z,25.60
2019-02-27T11:10:34.668Z,25.80
2019-02-27T11:13:06.818Z,25.00
2019-02-27T11:15:35.333Z,23.67
2019-02-27T11:18:05.860Z,23.30
2019-02-27T11:20:35.220Z,23.40
2019-02-27T11:23:07.107Z,22.90
2019-02-27T11:25:35.921Z,22.10
2019-02-27T11:28:05.423Z,20.60
2019-02-27T11:30:36.937Z,18.67
2019-02-27T11:33:06.431Z,19.13
2019-02-27T11:35:35.757Z,19.60
2019-02-27T11:38:05.583Z,18.43
2019-02-27T11:40:35.029Z,18.80
2019-02-27T11:43:06.947Z,18.43
2019-02-27T11:45:35.636Z,19.00
2019-02-27T11:48:05.045Z,22.77
2019-02-27T11:50:34.393Z,23.27
2019-02-27T11:53:03.771Z,17.83
2019-02-27T11:55:33.133Z,19.07
2019-02-27T11:58:05.343Z,16.80
2019-02-27T12:00:34.182Z,17.73
2019-02-27T12:03:03.445Z,17.77
2019-02-27T12:05:34.457Z,17.17
2019-02-27T12:08:03.917Z,16.13
2019-02-27T12:10:33.355Z,17.73
2019-02-27T12:13:02.623Z,17.40
2019-02-27T12:15:31.984Z,16.07
2019-02-27T12:18:01.825Z,16.53
2019-02-27T12:20:31.155Z,16.33
2019-02-27T12:23:00.699Z,15.70
2019-02-27T12:25:30.458Z,16.33
2019-02-27T12:28:01.906Z,14.90
2019-02-27T12:30:31.210Z,15.67
2019-02-27T12:33:00.483Z,15.73
2019-02-27T12:35:30.971Z,14.47
2019-02-27T12:38:00.235Z,14.03
2019-02-27T12:40:29.679Z,14.40
2019-02-27T12:42:59.057Z,13.50
2019-02-27T12:45:29.644Z,12.57
2019-02-27T12:47:59.280Z,12.57
2019-02-27T12:50:31.066Z,13.13
2019-02-27T12:52:59.998Z,11.77
2019-02-27T12:55:29.260Z,12.47
2019-02-27T12:57:58.668Z,12.23
2019-02-27T13:00:28.947Z,11.33
2019-02-27T13:02:59.078Z,10.77
2019-02-27T13:05:28.839Z,10.97
2019-02-27T13:07:58.223Z,10.40
2019-02-27T13:10:32.950Z,10.00
2019-02-27T13:12:58.758Z,9.73
2019-02-27T13:15:28.229Z,9.70
2019-02-27T13:17:58.026Z,9.10
2019-02-27T13:20:27.949Z,10.73
2019-02-27T13:22:57.267Z,8.63
2019-02-27T13:25:26.749Z,9.23
2019-02-27T13:27:56.240Z,9.57
2019-02-27T13:30:25.562Z,8.77
2019-02-27T13:32:54.863Z,9.30
2019-02-27T13:35:24.267Z,8.60
2019-02-27T13:37:53.643Z,8.17
2019-02-27T13:40:23.065Z,7.57
2019-02-27T13:42:53.669Z,7.50
2019-02-27T13:45:24.503Z,8.23
2019-02-27T13:47:53.988Z,7.57
2019-02-27T13:50:26.734Z,7.40
2019-02-27T13:52:55.127Z,6.77
2019-02-27T13:55:24.702Z,6.33
2019-02-27T13:57:58.774Z,7.13
2019-02-27T14:00:31.202Z,6.07
2019-02-27T14:03:00.468Z,6.00
2019-02-27T14:05:35.060Z,5.93
2019-02-27T14:08:01.120Z,6.47
2019-02-27T14:10:30.857Z,5.93
2019-02-27T14:13:00.146Z,6.30
2019-02-27T14:15:31.371Z,6.23
2019-02-27T14:18:00.637Z,5.30
2019-02-27T14:20:30.138Z,6.80
2019-02-27T14:22:59.532Z,6.03
2019-02-27T14:25:32.679Z,6.73
2019-02-27T14:28:00.025Z,6.43
2019-02-27T14:30:32.034Z,6.57
2019-02-27T14:33:01.618Z,6.00
2019-02-27T14:35:35.116Z,5.97
2019-02-27T14:38:02.228Z,5.60
2019-02-27T14:40:31.503Z,6.00
2019-02-27T14:43:01.203Z,6.53
2019-02-27T14:45:30.645Z,5.73
2019-02-27T14:47:59.984Z,5.83
2019-02-27T14:50:33.579Z,6.10
2019-02-27T14:53:00.431Z,6.40
2019-02-27T14:55:29.794Z,6.07
2019-02-27T14:57:59.058Z,5.53
2019-02-27T15:00:31.615Z,6.00
2019-02-27T15:03:00.945Z,5.77
2019-02-27T15:05:30.505Z,6.40
2019-02-27T15:07:59.890Z,5.87
2019-02-27T15:10:29.206Z,6.70
2019-02-27T15:12:58.528Z,5.83
2019-02-27T15:15:29.298Z,5.77
2019-02-27T15:17:58.950Z,5.20
2019-02-27T15:20:28.391Z,6.40
2019-02-27T15:22:57.665Z,5.70
2019-02-27T15:25:27.754Z,6.00
2019-02-27T15:27:59.636Z,6.20
2019-02-27T15:30:28.929Z,5.87
2019-02-27T15:33:03.845Z,6.30
2019-02-27T15:35:29.284Z,6.80
2019-02-27T15:37:58.642Z,6.23
2019-02-27T15:40:29.620Z,6.30
2019-02-27T15:42:59.499Z,6.70
2019-02-27T15:45:29.173Z,6.07
2019-02-27T15:47:58.543Z,6.57
2019-02-27T15:50:28.187Z,6.00
2019-02-27T15:52:57.512Z,6.20
2019-02-27T15:55:26.781Z,6.33
2019-02-27T15:57:56.294Z,5.80
2019-02-27T16:00:25.759Z,6.53
2019-02-27T16:02:55.037Z,6.60
2019-02-27T16:05:30.191Z,7.43
2019-02-27T16:07:55.552Z,6.33
2019-02-27T16:10:25.078Z,6.70
2019-02-27T16:13:00.012Z,6.93
2019-02-27T16:15:25.997Z,7.40
2019-02-27T16:17:55.370Z,7.07
2019-02-27T16:20:24.628Z,7.10
2019-02-27T16:22:54.018Z,7.57
2019-02-27T16:25:23.470Z,7.60
2019-02-27T16:27:52.794Z,7.00
2019-02-27T16:30:31.084Z,7.13
2019-02-27T16:32:57.300Z,7.13
2019-02-27T16:35:26.664Z,6.77
2019-02-27T16:37:57.689Z,8.77
2019-02-27T16:40:27.344Z,6.93
2019-02-27T16:42:56.699Z,7.30
2019-02-27T16:45:32.198Z,7.23
2019-02-27T16:47:59.168Z,6.93
2019-02-27T16:50:28.640Z,9.17
2019-02-27T16:52:58.234Z,9.47
2019-02-27T16:55:27.516Z,10.40
2019-02-27T16:57:57.817Z,11.63
2019-02-27T17:00:28.695Z,10.63
2019-02-27T17:02:57.988Z,12.17
2019-02-27T17:05:27.381Z,12.53
2019-02-27T17:08:00.307Z,13.03
2019-02-27T17:10:29.588Z,13.10
2019-02-27T17:12:59.042Z,13.70
2019-02-27T17:15:28.569Z,14.03
2019-02-27T17:17:57.838Z,14.47
2019-02-27T17:20:27.401Z,15.07
2019-02-27T17:22:56.879Z,15.13
2019-02-27T17:25:29.372Z,16.53
2019-02-27T17:27:57.427Z,16.23
2019-02-27T17:30:28.730Z,17.37
2019-02-27T17:32:58.215Z,17.97
2019-02-27T17:35:27.549Z,18.37
2019-02-27T17:37:56.826Z,17.97
2019-02-27T17:40:26.425Z,17.93
2019-02-27T17:42:55.854Z,18.33
2019-02-27T17:45:25.175Z,19.07
2019-02-27T17:47:54.452Z,17.87
2019-02-27T17:50:23.887Z,19.60
2019-02-27T17:52:53.296Z,18.23
2019-02-27T17:55:22.785Z,20.27
2019-02-27T17:57:52.129Z,19.10
2019-02-27T18:00:31.239Z,19.37
2019-02-27T18:03:00.599Z,19.07
2019-02-27T18:05:29.910Z,20.00
2019-02-27T18:07:59.309Z,20.33
2019-02-27T18:10:28.633Z,20.60
2019-02-27T18:12:58.838Z,20.37
2019-02-27T18:15:29.091Z,21.27
2019-02-27T18:17:58.403Z,21.00
2019-02-27T18:20:27.745Z,20.73
2019-02-27T18:22:57.099Z,22.90
2019-02-27T18:25:26.380Z,25.03
2019-02-27T18:27:58.516Z,22.13
2019-02-27T18:30:27.070Z,19.63
2019-02-27T18:32:56.397Z,21.20
2019-02-27T18:35:28.768Z,21.40
2019-02-27T18:37:57.112Z,21.63
2019-02-27T18:40:26.439Z,20.20
2019-02-27T18:42:56.694Z,19.97
2019-02-27T18:45:26.262Z,21.00
2019-02-27T18:47:55.632Z,20.63
2019-02-27T18:50:25.689Z,20.10
2019-02-27T18:52:55.084Z,20.27
2019-02-27T18:55:29.506Z,19.97
2019-02-27T18:57:55.496Z,21.63
2019-02-27T19:00:25.053Z,25.97
2019-02-27T19:02:54.785Z,23.37
2019-02-27T19:05:24.350Z,21.53
2019-02-27T19:07:55.047Z,20.73
2019-02-27T19:10:24.634Z,26.43
2019-02-27T19:12:54.041Z,45.40
2019-02-27T19:15:23.954Z,22.73
2019-02-27T19:17:53.366Z,22.27
2019-02-27T19:20:25.213Z,23.83
2019-02-27T19:22:54.719Z,23.73
2019-02-27T19:25:24.107Z,24.30
2019-02-27T19:27:53.667Z,24.53
2019-02-27T19:30:23.204Z,23.93
2019-02-27T19:32:55.211Z,23.80
2019-02-27T19:35:23.799Z,23.33
2019-02-27T19:37:53.728Z,24.50
2019-02-27T19:40:23.676Z,26.03
2019-02-27T19:42:54.778Z,25.03
2019-02-27T19:45:24.246Z,25.10
2019-02-27T19:47:55.654Z,25.03
2019-02-27T19:50:24.828Z,25.83
2019-02-27T19:52:54.260Z,24.43
2019-02-27T19:55:26.756Z,24.67
2019-02-27T19:57:55.029Z,24.67
2019-02-27T20:00:25.989Z,24.20
2019-02-27T20:03:00.340Z,25.30
2019-02-27T20:05:26.554Z,24.80
2019-02-27T20:07:56.149Z,25.37
2019-02-27T20:10:29.054Z,24.97
2019-02-27T20:12:56.938Z,26.30
2019-02-27T20:15:26.795Z,26.00
2019-02-27T20:17:56.151Z,27.00
2019-02-27T20:20:26.017Z,26.67
2019-02-27T20:22:55.318Z,27.10
2019-02-27T20:25:25.047Z,26.90
2019-02-27T20:27:57.866Z,27.67
2019-02-27T20:30:25.997Z,27.90
2019-02-27T20:32:55.310Z,27.07
2019-02-27T20:35:24.734Z,29.00
2019-02-27T20:37:54.030Z,29.33
2019-02-27T20:40:23.365Z,30.57
2019-02-27T20:42:55.191Z,30.53
2019-02-27T20:45:26.520Z,29.50
2019-02-27T20:48:00.495Z,30.03
2019-02-27T20:50:35.062Z,31.50
2019-02-27T20:53:04.026Z,31.23
2019-02-27T20:55:33.289Z,32.13
2019-02-27T20:58:02.607Z,31.63
2019-02-27T21:00:35.981Z,33.10
2019-02-27T21:03:03.269Z,33.50
2019-02-27T21:05:32.886Z,34.37
2019-02-27T21:08:02.659Z,34.30
2019-02-27T21:10:32.126Z,34.67
2019-02-27T21:13:01.628Z,35.83
2019-02-27T21:15:32.496Z,34.10
2019-02-27T21:18:02.226Z,35.23
2019-02-27T21:20:33.101Z,37.03
2019-02-27T21:23:02.661Z,37.67
2019-02-27T21:25:32.125Z,35.57
2019-02-27T21:28:06.604Z,37.07
2019-02-27T21:30:32.496Z,37.27
2019-02-27T21:33:02.011Z,36.70
2019-02-27T21:35:31.393Z,37.57
2019-02-27T21:38:00.683Z,38.27
2019-02-27T21:40:30.195Z,37.90
2019-02-27T21:42:59.550Z,38.83
2019-02-27T21:45:28.973Z,37.67
2019-02-27T21:47:58.374Z,38.70
2019-02-27T21:50:27.736Z,37.27
2019-02-27T21:52:57.067Z,39.27
2019-02-27T21:55:26.724Z,39.07
2019-02-27T21:57:58.154Z,39.33
2019-02-27T22:00:27.834Z,39.90
2019-02-27T22:02:57.126Z,39.90
2019-02-27T22:05:26.575Z,39.57
2019-02-27T22:07:56.177Z,39.93
2019-02-27T22:10:25.455Z,39.97
2019-02-27T22:12:54.741Z,41.00
2019-02-27T22:15:26.444Z,41.07
2019-02-27T22:17:55.910Z,39.77
2019-02-27T22:20:26.783Z,41.70
2019-02-27T22:22:56.595Z,40.83
2019-02-27T22:25:30.236Z,41.30
2019-02-27T22:27:58.482Z,40.77
2019-02-27T22:30:27.904Z,40.73
2019-02-27T22:32:57.259Z,41.07
2019-02-27T22:35:26.754Z,42.37
2019-02-27T22:37:56.060Z,43.13
2019-02-27T22:40:25.386Z,44.43
2019-02-27T22:42:54.819Z,42.13
2019-02-27T22:45:24.140Z,42.03
2019-02-27T22:47:54.675Z,41.93
2019-02-27T22:50:24.312Z,43.47
2019-02-27T22:52:54.778Z,44.43
2019-02-27T22:55:24.675Z,43.93
2019-02-27T22:57:54.739Z,46.00
2019-02-27T23:00:52.738Z,45.60
2019-02-27T23:03:23.735Z,44.47
2019-02-27T23:05:53.807Z,46.17
2019-02-27T23:08:24.060Z,46.63
2019-02-27T23:10:53.561Z,46.77
2019-02-27T23:13:23.114Z,45.50
2019-02-27T23:15:57.894Z,48.37
2019-02-27T23:18:24.302Z,46.47
2019-02-27T23:20:55.384Z,47.17
2019-02-27T23:23:24.714Z,47.40
2019-02-27T23:25:54.118Z,49.13
2019-02-27T23:28:23.410Z,49.07
2019-02-27T23:30:52.773Z,49.67
2019-02-27T23:33:24.578Z,51.33
2019-02-27T23:35:53.261Z,50.73
2019-02-27T23:38:22.671Z,49.50
2019-02-27T23:40:51.968Z,50.93
2019-02-27T23:43:21.704Z,51.77
2019-02-27T23:45:51.047Z,51.70
2019-02-27T23:48:20.430Z,51.37
2019-02-27T23:50:49.754Z,51.73
2019-02-27T23:53:19.060Z,49.47
2019-02-27T23:55:48.470Z,49.63
2019-02-27T23:58:17.759Z,48.00
